createdAt,value
2022-08-26T00:01:29.198Z,100.00
2022-08-26T00:03:56.449Z,100.00
2022-08-26T00:06:23.213Z,100.00
2022-08-26T00:08:49.714Z,100.00
2022-08-26T00:11:16.384Z,100.00
2022-08-26T00:13:54.146Z,100.00
2022-08-26T00:16:20.793Z,100.00
2022-08-26T00:18:47.296Z,100.00
2022-08-26T00:21:13.814Z,100.00
2022-08-26T00:23:40.523Z,100.00
2022-08-26T00:26:07.054Z,100.00
2022-08-26T00:28:35.411Z,100.00
2022-08-26T00:31:02.437Z,100.00
2022-08-26T00:33:30.004Z,100.00
2022-08-26T00:35:56.754Z,100.00
2022-08-26T00:38:23.555Z,100.00
2022-08-26T00:40:53.695Z,100.00
2022-08-26T00:43:22.746Z,100.00
2022-08-26T00:46:07.041Z,100.00
2022-08-26T00:48:34.736Z,100.00
2022-08-26T00:51:11.519Z,100.00
2022-08-26T00:53:43.248Z,100.00
2022-08-26T00:56:15.912Z,100.00
2022-08-26T00:58:45.490Z,100.00
2022-08-26T01:01:12.511Z,100.00
2022-08-26T01:03:40.191Z,100.00
2022-08-26T01:06:12.529Z,100.00
2022-08-26T01:08:40.162Z,100.00
2022-08-26T01:11:07.516Z,100.00
2022-08-26T01:13:36.873Z,100.00
2022-08-26T01:16:05.583Z,100.00
2022-08-26T01:18:33.250Z,100.00
2022-08-26T01:21:26.173Z,100.00
2022-08-26T01:23:57.466Z,100.00
2022-08-26T01:26:34.076Z,100.00
2022-08-26T01:29:03.669Z,100.00
2022-08-26T01:31:36.637Z,100.00
2022-08-26T01:34:11.010Z,100.00
2022-08-26T01:36:39.152Z,100.00
2022-08-26T01:39:07.214Z,100.00
2022-08-26T01:41:34.982Z,100.00
2022-08-26T01:44:02.116Z,100.00
2022-08-26T01:46:30.115Z,100.00
2022-08-26T01:48:58.710Z,100.00
2022-08-26T01:51:26.319Z,100.00
2022-08-26T01:53:52.821Z,100.00
2022-08-26T01:56:22.061Z,100.00
2022-08-26T01:58:54.564Z,100.00
2022-08-26T02:01:22.867Z,100.00
2022-08-26T02:04:08.899Z,100.00
2022-08-26T02:06:37.852Z,100.00
2022-08-26T02:09:07.844Z,100.00
2022-08-26T02:11:36.841Z,100.00
2022-08-26T02:14:21.875Z,100.00
2022-08-26T02:16:50.895Z,100.00
2022-08-26T02:19:30.470Z,100.00
2022-08-26T02:21:59.783Z,100.00
2022-08-26T02:24:29.727Z,100.00
2022-08-26T02:26:57.640Z,100.00
2022-08-26T02:29:27.967Z,100.00
2022-08-26T02:31:57.410Z,100.00
2022-08-26T02:34:31.400Z,100.00
2022-08-26T02:36:59.993Z,100.00
2022-08-26T02:39:26.881Z,100.00
2022-08-26T02:41:53.558Z,100.00
2022-08-26T02:44:20.724Z,100.00
2022-08-26T02:46:47.428Z,100.00
2022-08-26T02:49:16.220Z,100.00
2022-08-26T02:51:43.560Z,100.00
2022-08-26T02:54:10.118Z,100.00
2022-08-26T02:56:37.438Z,100.00
2022-08-26T02:59:04.198Z,100.00
2022-08-26T03:01:33.300Z,100.00
2022-08-26T03:04:00.702Z,100.00
2022-08-26T03:06:27.207Z,100.00
2022-08-26T03:08:53.731Z,100.00
2022-08-26T03:11:20.404Z,100.00
2022-08-26T03:13:49.056Z,100.00
2022-08-26T03:16:16.746Z,100.00
2022-08-26T03:18:44.002Z,100.00
2022-08-26T03:21:18.997Z,100.00
2022-08-26T03:23:47.141Z,100.00
2022-08-26T03:26:15.110Z,100.00
2022-08-26T03:29:01.487Z,100.00
2022-08-26T03:31:29.173Z,100.00
2022-08-26T03:33:59.581Z,100.00
2022-08-26T03:36:26.890Z,100.00
2022-08-26T03:38:53.581Z,100.00
2022-08-26T03:41:21.351Z,100.00
2022-08-26T03:43:50.639Z,100.00
2022-08-26T03:46:18.393Z,100.00
2022-08-26T03:48:45.704Z,100.00
2022-08-26T03:51:18.450Z,100.00
2022-08-26T03:53:46.031Z,100.00
2022-08-26T03:56:12.801Z,100.00
2022-08-26T03:58:39.443Z,100.00
2022-08-26T04:01:09.835Z,100.00
2022-08-26T04:03:54.911Z,100.00
2022-08-26T04:06:21.504Z,100.00
2022-08-26T04:08:48.285Z,100.00
2022-08-26T04:11:19.848Z,100.00
2022-08-26T04:13:48.032Z,100.00
2022-08-26T04:16:17.621Z,100.00
2022-08-26T04:18:46.824Z,100.00
2022-08-26T04:21:15.160Z,100.00
2022-08-26T04:23:47.491Z,100.00
2022-08-26T04:26:15.624Z,100.00
2022-08-26T04:28:42.120Z,100.00
2022-08-26T04:31:14.698Z,100.00
2022-08-26T04:33:43.237Z,100.00
2022-08-26T04:36:10.468Z,100.00
2022-08-26T04:38:37.078Z,100.00
2022-08-26T04:41:05.573Z,100.00
2022-08-26T04:43:42.176Z,100.00
2022-08-26T04:46:09.663Z,100.00
2022-08-26T04:48:39.493Z,100.00
2022-08-26T04:51:06.327Z,100.00
2022-08-26T04:53:32.820Z,100.00
2022-08-26T04:56:00.454Z,100.00
2022-08-26T04:58:27.521Z,100.00
2022-08-26T05:01:00.806Z,100.00
2022-08-26T05:03:30.434Z,100.00
2022-08-26T05:05:58.244Z,100.00
2022-08-26T05:08:24.971Z,100.00
2022-08-26T05:10:56.775Z,100.00
2022-08-26T05:13:26.144Z,100.00
2022-08-26T05:15:53.266Z,100.00
2022-08-26T05:18:22.832Z,100.00
2022-08-26T05:20:51.820Z,100.00
2022-08-26T05:23:22.603Z,100.00
2022-08-26T05:25:50.706Z,100.00
2022-08-26T05:28:18.840Z,100.00
2022-08-26T05:30:49.147Z,100.00
2022-08-26T05:33:16.717Z,100.00
2022-08-26T05:35:44.320Z,100.00
2022-08-26T05:38:17.561Z,100.00
2022-08-26T05:40:52.916Z,100.00
2022-08-26T05:43:21.265Z,100.00
2022-08-26T05:45:49.338Z,100.00
2022-08-26T05:48:18.579Z,100.00
2022-08-26T05:50:50.642Z,100.00
2022-08-26T05:53:19.133Z,100.00
2022-08-26T05:55:52.401Z,100.00
2022-08-26T05:58:20.885Z,100.00
2022-08-26T06:01:00.725Z,100.00
2022-08-26T06:03:27.615Z,100.00
2022-08-26T06:05:54.186Z,100.00
2022-08-26T06:08:21.300Z,100.00
2022-08-26T06:10:53.675Z,100.00
2022-08-26T06:13:26.783Z,100.00
2022-08-26T06:15:54.469Z,100.00
2022-08-26T06:18:27.239Z,100.00
2022-08-26T06:20:57.704Z,100.00
2022-08-26T06:23:45.625Z,100.00
2022-08-26T06:26:12.903Z,100.00
2022-08-26T06:28:39.452Z,100.00
2022-08-26T06:31:06.283Z,100.00
2022-08-26T06:33:32.969Z,100.00
2022-08-26T06:36:01.318Z,100.00
2022-08-26T06:38:28.383Z,100.00
2022-08-26T06:40:55.268Z,100.00
2022-08-26T06:43:24.347Z,100.00
2022-08-26T06:45:51.160Z,100.00
2022-08-26T06:48:19.692Z,100.00
2022-08-26T06:50:46.619Z,100.00
2022-08-26T06:53:17.048Z,100.00
2022-08-26T06:55:46.095Z,100.00
2022-08-26T06:58:13.797Z,99.94
2022-08-26T07:00:47.270Z,100.00
2022-08-26T07:03:14.299Z,99.94
2022-08-26T07:05:40.852Z,98.99
2022-08-26T07:08:07.517Z,97.78
2022-08-26T07:10:35.604Z,97.90
2022-08-26T07:13:02.660Z,98.13
2022-08-26T07:15:31.202Z,98.37
2022-08-26T07:17:58.164Z,98.54
2022-08-26T07:20:25.417Z,97.59
2022-08-26T07:22:51.980Z,96.75
2022-08-26T07:25:19.253Z,95.34
2022-08-26T07:27:46.791Z,93.57
2022-08-26T07:30:20.651Z,92.13
2022-08-26T07:32:47.435Z,91.59
2022-08-26T07:35:14.742Z,90.93
2022-08-26T07:37:42.288Z,90.93
2022-08-26T07:40:09.439Z,90.93
2022-08-26T07:42:35.995Z,90.93
2022-08-26T07:45:02.547Z,90.93
2022-08-26T07:47:29.233Z,90.93
2022-08-26T07:49:56.359Z,90.93
2022-08-26T07:52:26.683Z,90.90
2022-08-26T07:54:53.888Z,100.00
2022-08-26T07:57:20.739Z,100.00
2022-08-26T07:59:47.489Z,100.00
2022-08-26T08:02:14.019Z,100.00
2022-08-26T08:04:40.549Z,100.00
2022-08-26T08:07:07.552Z,100.00
2022-08-26T08:09:38.260Z,100.00
2022-08-26T08:12:07.512Z,100.00
2022-08-26T08:14:36.441Z,100.00
2022-08-26T08:17:04.343Z,100.00
2022-08-26T08:19:36.717Z,100.00
2022-08-26T08:22:11.351Z,100.00
2022-08-26T08:24:44.582Z,100.00
2022-08-26T08:27:11.094Z,100.00
2022-08-26T08:29:38.573Z,100.00
2022-08-26T08:32:05.412Z,100.00
2022-08-26T08:34:32.371Z,100.00
2022-08-26T08:36:59.514Z,100.00
2022-08-26T08:39:26.720Z,100.00
2022-08-26T08:42:00.740Z,100.00
2022-08-26T08:44:29.040Z,100.00
2022-08-26T08:46:59.297Z,100.00
2022-08-26T08:49:26.157Z,100.00
2022-08-26T08:52:16.539Z,100.00
2022-08-26T08:54:43.148Z,100.00
2022-08-26T08:57:16.732Z,100.00
2022-08-26T09:00:01.584Z,100.00
2022-08-26T09:02:34.669Z,100.00
2022-08-26T09:05:29.884Z,100.00
2022-08-26T09:08:01.679Z,100.00
2022-08-26T09:10:35.624Z,100.00
2022-08-26T09:13:09.677Z,100.00
2022-08-26T09:15:56.985Z,100.00
2022-08-26T09:18:54.417Z,100.00
2022-08-26T09:21:23.569Z,100.00
2022-08-26T09:23:53.171Z,100.00
2022-08-26T09:26:25.930Z,100.00
2022-08-26T09:29:01.263Z,100.00
2022-08-26T09:31:30.864Z,100.00
2022-08-26T09:34:07.251Z,100.00
2022-08-26T09:36:41.058Z,100.00
2022-08-26T09:39:37.732Z,100.00
2022-08-26T09:42:10.814Z,100.00
2022-08-26T09:44:54.818Z,100.00
2022-08-26T09:47:26.761Z,100.00
2022-08-26T09:50:12.471Z,100.00
2022-08-26T09:52:40.376Z,100.00
2022-08-26T09:55:12.426Z,100.00
2022-08-26T09:57:48.918Z,100.00
2022-08-26T10:00:27.991Z,100.00
2022-08-26T10:02:57.956Z,100.00
2022-08-26T10:05:43.919Z,100.00
2022-08-26T10:08:26.412Z,100.00
2022-08-26T10:10:53.650Z,100.00
2022-08-26T10:13:42.226Z,100.00
2022-08-26T10:16:22.368Z,100.00
2022-08-26T10:19:00.042Z,100.00
2022-08-26T10:21:42.691Z,100.00
2022-08-26T10:24:11.526Z,100.00
2022-08-26T10:26:58.227Z,100.00
2022-08-26T10:29:34.154Z,100.00
2022-08-26T10:32:04.786Z,100.00
2022-08-26T10:34:32.563Z,100.00
2022-08-26T10:37:16.434Z,100.00
2022-08-26T10:40:03.698Z,100.00
2022-08-26T10:42:30.909Z,100.00
2022-08-26T10:45:04.840Z,100.00
2022-08-26T10:47:41.930Z,100.00
2022-08-26T10:50:08.444Z,100.00
2022-08-26T10:53:02.477Z,100.00
2022-08-26T10:55:57.233Z,100.00
2022-08-26T10:58:45.643Z,66.55
2022-08-26T11:01:50.872Z,65.24
2022-08-26T11:04:37.445Z,66.50
2022-08-26T11:07:32.320Z,66.50
2022-08-26T11:10:01.044Z,67.28
2022-08-26T11:12:37.331Z,68.29
2022-08-26T11:15:10.729Z,68.58
2022-08-26T11:17:48.851Z,69.80
2022-08-26T11:20:42.341Z,70.04
2022-08-26T11:23:24.010Z,70.48
2022-08-26T11:25:57.032Z,70.81
2022-08-26T11:28:46.082Z,70.99
2022-08-26T11:31:25.614Z,71.90
2022-08-26T11:34:07.149Z,72.66
2022-08-26T11:36:47.646Z,72.45
2022-08-26T11:39:36.733Z,72.23
2022-08-26T11:42:20.251Z,73.13
2022-08-26T11:44:49.248Z,72.85
2022-08-26T11:47:17.898Z,72.67
2022-08-26T11:49:45.595Z,74.59
2022-08-26T11:52:17.421Z,75.49
2022-08-26T11:55:20.156Z,74.98
2022-08-26T11:57:53.452Z,75.46
2022-08-26T12:00:26.485Z,75.49
2022-08-26T12:02:53.472Z,76.25
2022-08-26T12:05:31.125Z,76.39
2022-08-26T12:08:01.331Z,75.74
2022-08-26T12:10:31.148Z,76.64
2022-08-26T12:13:00.467Z,76.87
2022-08-26T12:15:29.604Z,78.03
2022-08-26T12:17:56.898Z,78.03
2022-08-26T12:20:48.085Z,78.03
2022-08-26T12:23:48.029Z,83.79
2022-08-26T12:26:25.496Z,83.79
2022-08-26T12:28:53.842Z,83.79
2022-08-26T12:33:48.611Z,83.79
2022-08-26T12:36:21.191Z,61.97
2022-08-26T12:41:39.399Z,100.00
2022-08-26T12:44:06.111Z,83.59
2022-08-26T12:46:32.658Z,83.79
2022-08-26T12:49:01.667Z,94.84
2022-08-26T12:51:31.075Z,94.42
2022-08-26T12:53:58.296Z,93.17
2022-08-26T12:56:51.977Z,91.97
2022-08-26T12:59:25.659Z,92.77
2022-08-26T13:01:53.442Z,91.41
2022-08-26T13:04:41.820Z,90.12
2022-08-26T13:07:23.046Z,90.63
2022-08-26T13:09:52.218Z,90.63
2022-08-26T13:12:29.374Z,89.76
2022-08-26T13:14:57.520Z,90.80
2022-08-26T13:17:24.388Z,90.62
2022-08-26T13:19:50.934Z,90.03
2022-08-26T13:22:22.863Z,89.50
2022-08-26T13:24:49.606Z,89.50
2022-08-26T13:29:44.631Z,89.50
2022-08-26T13:32:12.422Z,89.50
2022-08-26T13:34:39.485Z,88.45
2022-08-26T13:37:06.366Z,85.11
2022-08-26T13:39:33.129Z,82.59
2022-08-26T13:42:00.315Z,81.49
2022-08-26T13:44:27.368Z,80.80
2022-08-26T13:46:53.990Z,79.19
2022-08-26T13:49:20.530Z,77.13
2022-08-26T13:51:47.096Z,77.13
2022-08-26T13:54:13.667Z,77.13
2022-08-26T13:56:40.343Z,77.13
2022-08-26T13:59:10.232Z,74.98
2022-08-26T14:01:39.638Z,75.11
2022-08-26T14:04:06.298Z,75.11
2022-08-26T14:06:32.848Z,77.00
2022-08-26T14:09:00.309Z,76.65
2022-08-26T14:11:27.690Z,77.46
2022-08-26T14:13:54.218Z,76.84
2022-08-26T14:16:26.624Z,75.80
2022-08-26T14:18:53.454Z,78.91
2022-08-26T14:21:20.533Z,84.59
2022-08-26T14:23:47.123Z,87.21
2022-08-26T14:26:19.081Z,88.19
2022-08-26T14:28:57.941Z,88.42
2022-08-26T14:31:26.721Z,88.74
2022-08-26T14:33:53.435Z,89.25
2022-08-26T14:36:28.931Z,90.45
2022-08-26T14:38:56.542Z,90.11
2022-08-26T14:41:25.216Z,88.29
2022-08-26T14:43:58.005Z,87.56
2022-08-26T14:46:28.819Z,87.36
2022-08-26T14:49:01.560Z,87.33
2022-08-26T14:51:28.808Z,87.04
2022-08-26T14:54:13.463Z,87.06
2022-08-26T14:56:53.930Z,87.57
2022-08-26T14:59:22.779Z,87.98
2022-08-26T15:01:49.485Z,87.55
2022-08-26T15:04:16.508Z,86.91
2022-08-26T15:06:43.154Z,89.30
2022-08-26T15:09:10.064Z,89.99
2022-08-26T15:11:36.674Z,89.77
2022-08-26T15:14:03.231Z,87.96
2022-08-26T15:16:29.991Z,87.04
2022-08-26T15:18:56.781Z,86.68
2022-08-26T15:21:24.122Z,87.12
2022-08-26T15:23:52.095Z,87.84
2022-08-26T15:26:19.847Z,86.81
2022-08-26T15:28:46.543Z,88.11
2022-08-26T15:31:13.192Z,89.94
2022-08-26T15:33:40.316Z,89.24
2022-08-26T15:36:08.044Z,87.64
2022-08-26T15:38:37.469Z,86.67
2022-08-26T15:41:05.294Z,85.80
2022-08-26T15:43:32.053Z,83.53
2022-08-26T15:45:58.574Z,84.73
2022-08-26T15:48:25.427Z,83.66
2022-08-26T15:50:57.233Z,83.01
2022-08-26T15:53:24.206Z,81.25
2022-08-26T15:55:54.160Z,81.23
2022-08-26T15:58:21.742Z,80.73
2022-08-26T16:00:48.237Z,81.03
2022-08-26T16:03:14.743Z,80.33
2022-08-26T16:05:43.612Z,80.76
2022-08-26T16:08:10.846Z,80.25
2022-08-26T16:10:39.555Z,80.04
2022-08-26T16:13:06.220Z,79.82
2022-08-26T16:15:33.689Z,78.86
2022-08-26T16:18:01.882Z,78.41
2022-08-26T16:20:29.186Z,77.78
2022-08-26T16:22:56.240Z,78.41
2022-08-26T16:25:22.844Z,78.70
2022-08-26T16:27:49.504Z,79.94
2022-08-26T16:30:16.779Z,80.20
2022-08-26T16:32:43.315Z,80.67
2022-08-26T16:35:11.653Z,80.81
2022-08-26T16:37:39.410Z,80.74
2022-08-26T16:40:07.366Z,81.72
2022-08-26T16:42:34.087Z,82.17
2022-08-26T16:45:00.616Z,82.82
2022-08-26T16:47:27.292Z,82.80
2022-08-26T16:49:53.790Z,82.58
2022-08-26T16:52:20.368Z,82.58
2022-08-26T16:54:47.424Z,82.66
2022-08-26T16:57:14.082Z,83.15
2022-08-26T16:59:41.456Z,83.48
2022-08-26T17:02:08.261Z,83.92
2022-08-26T17:04:34.768Z,84.60
2022-08-26T17:07:01.258Z,85.04
2022-08-26T17:09:27.832Z,85.17
2022-08-26T17:11:54.499Z,85.12
2022-08-26T17:14:21.035Z,84.91
2022-08-26T17:16:51.104Z,84.80
2022-08-26T17:19:19.188Z,85.00
2022-08-26T17:21:46.891Z,85.15
2022-08-26T17:24:14.005Z,85.28
2022-08-26T17:26:44.142Z,85.47
2022-08-26T17:29:14.767Z,85.65
2022-08-26T17:31:41.385Z,86.17
2022-08-26T17:34:10.108Z,86.54
2022-08-26T17:36:36.653Z,86.78
2022-08-26T17:39:03.599Z,87.22
2022-08-26T17:41:30.433Z,87.54
2022-08-26T17:43:57.112Z,87.87
2022-08-26T17:46:24.595Z,87.90
2022-08-26T17:48:51.291Z,88.27
2022-08-26T17:51:19.232Z,88.12
2022-08-26T17:53:46.635Z,88.45
2022-08-26T17:56:14.734Z,88.54
2022-08-26T17:58:51.470Z,88.76
2022-08-26T18:01:18.706Z,89.37
2022-08-26T18:03:48.226Z,89.39
2022-08-26T18:06:15.038Z,89.99
2022-08-26T18:08:41.529Z,90.02
2022-08-26T18:11:18.250Z,90.15
2022-08-26T18:13:47.147Z,90.58
2022-08-26T18:16:15.210Z,90.72
2022-08-26T18:18:42.200Z,90.90
2022-08-26T18:21:17.051Z,90.83
2022-08-26T18:23:45.075Z,90.78
2022-08-26T18:26:31.323Z,90.44
2022-08-26T18:28:58.560Z,90.58
2022-08-26T18:31:25.233Z,90.64
2022-08-26T18:33:52.411Z,90.40
2022-08-26T18:36:24.392Z,90.33
2022-08-26T18:38:51.619Z,90.64
2022-08-26T18:41:20.895Z,91.13
2022-08-26T18:43:50.264Z,91.36
2022-08-26T18:46:17.749Z,91.50
2022-08-26T18:48:44.474Z,91.43
2022-08-26T18:51:19.153Z,91.88
2022-08-26T18:53:45.691Z,91.99
2022-08-26T18:56:16.624Z,92.02
2022-08-26T18:58:45.469Z,92.01
2022-08-26T19:01:13.082Z,92.23
2022-08-26T19:03:39.788Z,92.40
2022-08-26T19:06:06.580Z,92.62
2022-08-26T19:08:33.066Z,92.60
2022-08-26T19:11:00.920Z,92.81
2022-08-26T19:13:27.407Z,93.23
2022-08-26T19:15:54.064Z,93.57
2022-08-26T19:18:20.609Z,93.65
2022-08-26T19:20:47.880Z,93.91
2022-08-26T19:23:30.775Z,94.14
2022-08-26T19:25:57.865Z,94.20
2022-08-26T19:28:24.697Z,94.29
2022-08-26T19:30:53.556Z,94.90
2022-08-26T19:33:20.178Z,95.25
2022-08-26T19:35:46.842Z,95.56
2022-08-26T19:38:13.828Z,95.26
2022-08-26T19:40:40.331Z,95.30
2022-08-26T19:43:07.075Z,95.49
2022-08-26T19:45:34.399Z,95.74
2022-08-26T19:48:01.027Z,95.58
2022-08-26T19:50:30.616Z,95.54
2022-08-26T19:52:57.275Z,95.95
2022-08-26T19:55:24.389Z,96.04
2022-08-26T19:57:52.248Z,96.09
2022-08-26T20:00:23.723Z,96.10
2022-08-26T20:02:51.005Z,96.23
2022-08-26T20:05:20.634Z,96.47
2022-08-26T20:07:47.642Z,96.64
2022-08-26T20:10:15.681Z,96.54
2022-08-26T20:12:42.868Z,96.71
2022-08-26T20:15:11.327Z,96.97
2022-08-26T20:17:38.216Z,97.11
2022-08-26T20:20:29.713Z,97.09
2022-08-26T20:23:00.490Z,97.15
2022-08-26T20:25:27.005Z,97.31
2022-08-26T20:27:53.494Z,97.47
2022-08-26T20:30:20.054Z,97.38
2022-08-26T20:32:46.603Z,97.62
2022-08-26T20:35:13.714Z,97.27
2022-08-26T20:37:41.157Z,97.25
2022-08-26T20:40:09.427Z,97.40
2022-08-26T20:42:36.267Z,97.30
2022-08-26T20:45:03.201Z,97.53
2022-08-26T20:47:29.835Z,97.48
2022-08-26T20:49:56.456Z,97.31
2022-08-26T20:52:23.099Z,97.01
2022-08-26T20:54:49.617Z,96.81
2022-08-26T20:57:16.123Z,96.71
2022-08-26T20:59:43.462Z,96.82
2022-08-26T21:02:10.049Z,96.81
2022-08-26T21:04:36.583Z,96.96
2022-08-26T21:07:03.196Z,96.77
2022-08-26T21:09:29.765Z,96.64
2022-08-26T21:11:57.247Z,96.72
2022-08-26T21:14:25.905Z,96.34
2022-08-26T21:16:52.821Z,96.13
2022-08-26T21:19:19.642Z,96.14
2022-08-26T21:21:47.613Z,95.99
2022-08-26T21:24:14.255Z,95.88
2022-08-26T21:26:40.880Z,95.92
2022-08-26T21:29:09.546Z,95.96
2022-08-26T21:31:36.657Z,95.96
2022-08-26T21:34:03.302Z,95.93
2022-08-26T21:36:29.812Z,96.19
2022-08-26T21:38:57.150Z,96.37
2022-08-26T21:41:23.760Z,96.39
2022-08-26T21:43:53.564Z,96.81
2022-08-26T21:46:22.104Z,97.00
2022-08-26T21:48:51.943Z,96.88
2022-08-26T21:51:20.790Z,96.84
2022-08-26T21:53:47.459Z,97.31
2022-08-26T21:56:18.044Z,97.28
2022-08-26T21:58:45.128Z,97.03
2022-08-26T22:01:14.325Z,96.92
2022-08-26T22:03:47.402Z,97.17
2022-08-26T22:06:15.001Z,97.07
2022-08-26T22:08:41.486Z,97.13
2022-08-26T22:11:09.445Z,96.84
2022-08-26T22:13:37.601Z,96.86
2022-08-26T22:16:04.914Z,97.17
2022-08-26T22:18:31.707Z,97.06
2022-08-26T22:21:01.305Z,97.04
2022-08-26T22:23:28.217Z,97.18
2022-08-26T22:25:55.787Z,96.95
2022-08-26T22:28:22.930Z,97.16
2022-08-26T22:30:49.542Z,97.34
2022-08-26T22:33:17.315Z,97.16
2022-08-26T22:35:48.247Z,97.10
2022-08-26T22:38:15.015Z,97.12
2022-08-26T22:40:50.462Z,96.93
2022-08-26T22:43:18.100Z,97.12
2022-08-26T22:45:46.298Z,97.33
2022-08-26T22:48:15.523Z,97.45
2022-08-26T22:50:43.779Z,97.60
2022-08-26T22:53:10.547Z,97.34
2022-08-26T22:55:37.065Z,97.46
2022-08-26T22:58:03.782Z,97.57
2022-08-26T23:00:32.306Z,97.33
2022-08-26T23:02:59.943Z,97.46
2022-08-26T23:05:26.727Z,97.87
2022-08-26T23:07:53.947Z,97.85
2022-08-26T23:10:20.492Z,98.04
2022-08-26T23:12:46.995Z,97.98
2022-08-26T23:15:13.586Z,98.42
2022-08-26T23:17:40.181Z,98.51
2022-08-26T23:20:09.737Z,98.69
2022-08-26T23:22:37.035Z,98.63
2022-08-26T23:25:07.781Z,98.79
2022-08-26T23:27:40.379Z,99.26
2022-08-26T23:30:10.980Z,99.54
2022-08-26T23:32:37.512Z,99.03
2022-08-26T23:35:05.633Z,99.09
2022-08-26T23:37:35.922Z,99.26
2022-08-26T23:40:05.029Z,98.85
2022-08-26T23:42:31.603Z,98.79
2022-08-26T23:44:58.111Z,99.04
2022-08-26T23:47:25.094Z,98.83
2022-08-26T23:49:51.601Z,98.99
2022-08-26T23:52:36.631Z,99.17
2022-08-26T23:55:03.469Z,99.66
2022-08-26T23:57:29.963Z,99.78
2022-08-26T23:59:56.483Z,100.00
